createdAt,value
2017-06-08T00:01:49.301Z,2.43
2017-06-08T00:04:16.910Z,2.70
2017-06-08T00:06:44.491Z,2.93
2017-06-08T00:09:12.147Z,2.60
2017-06-08T00:11:39.726Z,2.60
2017-06-08T00:14:08.095Z,2.43
2017-06-08T00:16:35.693Z,3.03
2017-06-08T00:19:03.239Z,2.90
2017-06-08T00:21:30.819Z,3.50
2017-06-08T00:23:58.397Z,2.90
2017-06-08T00:26:25.985Z,3.13
2017-06-08T00:28:53.560Z,3.00
2017-06-08T00:31:21.105Z,3.00
2017-06-08T00:33:48.703Z,2.97
2017-06-08T00:36:16.252Z,3.20
2017-06-08T00:38:44.579Z,2.93
2017-06-08T00:41:12.162Z,2.50
2017-06-08T00:43:39.725Z,3.00
2017-06-08T00:46:07.315Z,2.60
2017-06-08T00:48:35.637Z,2.70
2017-06-08T00:51:03.190Z,2.70
2017-06-08T00:53:30.760Z,3.30
2017-06-08T00:55:58.339Z,3.37
2017-06-08T00:58:25.921Z,2.80
2017-06-08T01:00:54.254Z,3.23
2017-06-08T01:03:21.835Z,2.47
2017-06-08T01:05:49.398Z,3.20
2017-06-08T01:08:16.970Z,3.37
2017-06-08T01:10:44.523Z,2.67
2017-06-08T01:13:12.133Z,3.53
2017-06-08T01:15:39.765Z,3.23
2017-06-08T01:18:08.106Z,3.10
2017-06-08T01:20:35.666Z,3.07
2017-06-08T01:23:03.282Z,3.10
2017-06-08T01:25:31.622Z,2.80
2017-06-08T01:27:59.253Z,3.00
2017-06-08T01:30:26.812Z,2.97
2017-06-08T01:32:54.359Z,2.90
2017-06-08T01:35:23.010Z,3.43
2017-06-08T01:37:50.654Z,2.97
2017-06-08T01:40:18.206Z,3.23
2017-06-08T01:42:45.782Z,3.57
2017-06-08T01:45:13.334Z,3.30
2017-06-08T01:47:40.936Z,2.63
2017-06-08T01:50:09.283Z,3.30
2017-06-08T01:52:36.942Z,3.47
2017-06-08T01:55:04.519Z,2.70
2017-06-08T01:57:32.078Z,3.07
2017-06-08T01:59:59.747Z,3.00
2017-06-08T02:02:27.306Z,2.70
2017-06-08T02:04:55.630Z,2.80
2017-06-08T02:07:23.262Z,3.13
2017-06-08T02:09:51.634Z,3.00
2017-06-08T02:12:19.998Z,3.43
2017-06-08T02:14:48.446Z,3.30
2017-06-08T02:17:16.010Z,3.20
2017-06-08T02:19:43.630Z,3.90
2017-06-08T02:22:11.194Z,3.03
2017-06-08T02:24:38.822Z,3.97
2017-06-08T02:27:06.374Z,3.60
2017-06-08T02:29:33.926Z,3.40
2017-06-08T02:32:01.516Z,3.90
2017-06-08T02:34:29.890Z,2.80
2017-06-08T02:36:57.486Z,3.03
2017-06-08T02:39:25.046Z,3.33
2017-06-08T02:41:52.614Z,3.90
2017-06-08T02:44:20.198Z,2.57
2017-06-08T02:46:47.750Z,4.27
2017-06-08T02:49:15.361Z,3.50
2017-06-08T02:51:42.972Z,3.30
2017-06-08T02:54:10.560Z,3.33
2017-06-08T02:56:38.139Z,3.20
2017-06-08T02:59:05.704Z,3.20
2017-06-08T03:01:33.247Z,2.80
2017-06-08T03:04:00.833Z,3.50
2017-06-08T03:06:29.150Z,3.40
2017-06-08T03:08:56.706Z,2.80
2017-06-08T03:11:24.286Z,2.77
2017-06-08T03:13:51.850Z,2.60
2017-06-08T03:16:19.451Z,3.27
2017-06-08T03:18:47.773Z,3.10
2017-06-08T03:21:15.365Z,3.60
2017-06-08T03:23:42.953Z,3.60
2017-06-08T03:26:11.285Z,3.67
2017-06-08T03:28:38.876Z,3.90
2017-06-08T03:31:06.454Z,3.70
2017-06-08T03:33:34.006Z,3.73
2017-06-08T03:36:01.649Z,4.53
2017-06-08T03:38:29.212Z,3.10
2017-06-08T03:40:56.770Z,3.33
2017-06-08T03:43:24.369Z,3.70
2017-06-08T03:45:52.710Z,3.90
2017-06-08T03:48:20.273Z,4.73
2017-06-08T03:50:47.826Z,4.43
2017-06-08T03:53:15.503Z,3.50
2017-06-08T03:55:43.062Z,4.67
2017-06-08T03:58:10.614Z,4.10
2017-06-08T04:00:38.177Z,5.00
2017-06-08T04:03:05.755Z,4.10
2017-06-08T04:05:33.333Z,4.73
2017-06-08T04:08:01.698Z,3.87
2017-06-08T04:10:29.598Z,4.30
2017-06-08T04:12:57.167Z,4.13
2017-06-08T04:15:24.727Z,4.20
2017-06-08T04:17:52.318Z,4.60
2017-06-08T04:20:19.899Z,3.57
2017-06-08T04:22:47.462Z,3.93
2017-06-08T04:25:15.038Z,4.87
2017-06-08T04:27:43.489Z,4.70
2017-06-08T04:30:11.070Z,4.37
2017-06-08T04:32:38.634Z,4.50
2017-06-08T04:35:06.183Z,4.20
2017-06-08T04:37:33.778Z,5.10
2017-06-08T04:40:01.406Z,4.80
2017-06-08T04:42:28.966Z,4.50
2017-06-08T04:44:56.574Z,4.27
2017-06-08T04:47:24.136Z,4.60
2017-06-08T04:49:51.681Z,5.57
2017-06-08T04:52:19.263Z,5.00
2017-06-08T04:54:46.902Z,4.13
2017-06-08T04:57:15.254Z,5.30
2017-06-08T04:59:42.813Z,5.20
2017-06-08T05:02:10.353Z,5.10
2017-06-08T05:04:37.916Z,4.90
2017-06-08T05:07:05.493Z,5.20
2017-06-08T05:09:33.270Z,6.07
2017-06-08T05:12:01.617Z,5.17
2017-06-08T05:14:29.188Z,5.80
2017-06-08T05:16:56.771Z,4.67
2017-06-08T05:19:24.322Z,5.30
2017-06-08T05:21:51.929Z,4.87
2017-06-08T05:24:19.531Z,4.77
2017-06-08T05:26:47.134Z,4.60
2017-06-08T05:29:14.709Z,5.40
2017-06-08T05:31:42.281Z,4.53
2017-06-08T05:34:09.883Z,5.63
2017-06-08T05:36:37.449Z,5.50
2017-06-08T05:39:05.005Z,5.63
2017-06-08T05:41:32.623Z,5.70
2017-06-08T05:44:00.182Z,5.17
2017-06-08T05:46:27.790Z,4.63
2017-06-08T05:48:55.347Z,4.80
2017-06-08T05:51:22.910Z,5.07
2017-06-08T05:53:50.507Z,4.53
2017-06-08T05:56:18.076Z,4.73
2017-06-08T05:58:45.723Z,4.50
2017-06-08T06:01:14.066Z,5.93
2017-06-08T06:03:41.666Z,4.80
2017-06-08T06:06:09.257Z,4.43
2017-06-08T06:08:37.363Z,4.10
2017-06-08T06:11:04.951Z,4.00
2017-06-08T06:13:33.336Z,4.00
2017-06-08T06:16:01.697Z,3.90
2017-06-08T06:18:29.252Z,4.20
2017-06-08T06:20:56.813Z,3.33
2017-06-08T06:23:24.436Z,3.47
2017-06-08T06:25:51.987Z,4.20
2017-06-08T06:28:19.563Z,4.17
2017-06-08T06:30:47.124Z,3.60
2017-06-08T06:33:14.677Z,3.60
2017-06-08T06:35:42.262Z,3.40
2017-06-08T06:38:09.843Z,3.57
2017-06-08T06:40:37.434Z,3.80
2017-06-08T06:43:04.994Z,3.90
2017-06-08T06:45:32.566Z,3.70
2017-06-08T06:48:00.158Z,3.47
2017-06-08T06:50:27.723Z,3.77
2017-06-08T06:52:55.286Z,3.53
2017-06-08T06:55:22.893Z,3.83
2017-06-08T06:57:51.215Z,3.50
2017-06-08T07:00:18.814Z,3.57
2017-06-08T07:02:46.365Z,3.17
2017-06-08T07:05:13.930Z,3.20
2017-06-08T07:07:41.513Z,3.40
2017-06-08T07:10:09.844Z,3.57
2017-06-08T07:12:37.466Z,3.17
2017-06-08T07:15:05.026Z,4.23
2017-06-08T07:17:32.583Z,2.77
2017-06-08T07:20:00.212Z,3.27
2017-06-08T07:22:27.797Z,3.40
2017-06-08T07:24:56.118Z,3.43
2017-06-08T07:27:23.822Z,2.97
2017-06-08T07:29:51.389Z,2.70
2017-06-08T07:32:18.942Z,2.93
2017-06-08T07:34:46.525Z,2.80
2017-06-08T07:37:14.875Z,2.90
2017-06-08T07:39:42.444Z,3.20
2017-06-08T07:42:10.006Z,3.00
2017-06-08T07:44:37.600Z,3.00
2017-06-08T07:47:05.262Z,2.70
2017-06-08T07:49:32.826Z,2.80
2017-06-08T07:52:00.398Z,2.60
2017-06-08T07:54:27.992Z,2.97
2017-06-08T07:56:55.566Z,3.90
2017-06-08T07:59:23.119Z,2.70
2017-06-08T08:02:02.587Z,3.17
2017-06-08T08:04:30.940Z,2.57
2017-06-08T08:06:58.499Z,2.60
2017-06-08T08:09:26.112Z,2.70
2017-06-08T08:11:53.659Z,2.50
2017-06-08T08:14:21.302Z,2.77
2017-06-08T08:16:49.654Z,3.00
2017-06-08T08:19:17.226Z,3.53
2017-06-08T08:21:44.807Z,2.83
2017-06-08T08:24:13.136Z,2.50
2017-06-08T08:26:40.683Z,3.10
2017-06-08T08:29:08.518Z,3.87
2017-06-08T08:31:36.841Z,2.70
2017-06-08T08:34:04.395Z,3.20
2017-06-08T08:36:32.202Z,3.00
2017-06-08T08:38:59.779Z,3.17
2017-06-08T08:41:27.425Z,3.23
2017-06-08T08:43:55.014Z,3.20
2017-06-08T08:46:22.604Z,2.60
2017-06-08T08:48:50.169Z,2.63
2017-06-08T08:51:17.751Z,2.50
2017-06-08T08:53:45.309Z,2.50
2017-06-08T08:56:12.885Z,2.67
2017-06-08T08:58:40.458Z,2.93
2017-06-08T09:01:08.046Z,2.77
2017-06-08T09:03:35.642Z,2.40
2017-06-08T09:06:03.217Z,1.97
2017-06-08T09:08:30.798Z,2.17
2017-06-08T09:10:58.364Z,2.30
2017-06-08T09:13:25.926Z,2.40
2017-06-08T09:15:53.503Z,2.43
2017-06-08T09:18:21.060Z,3.07
2017-06-08T09:20:48.634Z,2.13
2017-06-08T09:23:16.198Z,2.53
2017-06-08T09:25:43.766Z,2.77
2017-06-08T09:28:11.526Z,2.57
2017-06-08T09:30:39.100Z,2.90
2017-06-08T09:33:06.653Z,2.73
2017-06-08T09:35:34.231Z,2.67
2017-06-08T09:38:01.798Z,2.93
2017-06-08T09:40:29.395Z,2.60
2017-06-08T09:42:56.995Z,2.73
2017-06-08T09:45:24.553Z,2.30
2017-06-08T09:47:52.134Z,3.03
2017-06-08T09:50:19.775Z,3.40
2017-06-08T09:52:47.369Z,2.80
2017-06-08T09:55:14.979Z,2.73
2017-06-08T09:57:42.580Z,2.77
2017-06-08T10:00:10.151Z,2.80
2017-06-08T10:02:37.709Z,2.50
2017-06-08T10:05:05.354Z,2.47
2017-06-08T10:07:32.950Z,2.77
2017-06-08T10:10:00.514Z,2.80
2017-06-08T10:12:28.134Z,3.00
2017-06-08T10:14:55.690Z,2.80
2017-06-08T10:17:23.264Z,2.93
2017-06-08T10:19:50.863Z,3.30
2017-06-08T10:22:18.474Z,3.03
2017-06-08T10:24:46.080Z,3.50
2017-06-08T10:27:13.796Z,2.77
2017-06-08T10:29:41.357Z,2.83
2017-06-08T10:32:08.957Z,2.83
2017-06-08T10:34:36.510Z,2.50
2017-06-08T10:37:04.073Z,2.90
2017-06-08T10:39:31.657Z,2.20
2017-06-08T10:41:59.232Z,2.77
2017-06-08T10:44:26.787Z,2.57
2017-06-08T10:46:54.427Z,3.03
2017-06-08T10:49:21.993Z,3.00
2017-06-08T10:51:49.562Z,2.70
2017-06-08T10:54:17.174Z,3.00
2017-06-08T10:56:44.751Z,2.70
2017-06-08T10:59:12.349Z,2.77
2017-06-08T11:01:39.962Z,2.80
2017-06-08T11:04:07.639Z,2.77
2017-06-08T11:06:35.202Z,2.80
2017-06-08T11:09:02.798Z,2.90
2017-06-08T11:11:30.381Z,2.80
2017-06-08T11:13:58.729Z,2.90
2017-06-08T11:16:26.355Z,2.90
2017-06-08T11:18:53.909Z,3.27
2017-06-08T11:21:21.509Z,3.20
2017-06-08T11:23:49.083Z,2.93
2017-06-08T11:26:16.654Z,3.20
2017-06-08T11:28:44.255Z,2.67
2017-06-08T11:31:11.838Z,3.10
2017-06-08T11:33:39.414Z,3.20
2017-06-08T11:36:07.046Z,3.30
2017-06-08T11:38:34.622Z,3.00
2017-06-08T11:41:02.295Z,3.67
2017-06-08T11:43:29.875Z,3.20
2017-06-08T11:45:57.461Z,2.67
2017-06-08T11:48:25.809Z,3.40
2017-06-08T11:50:53.375Z,3.10
2017-06-08T11:53:20.971Z,3.10
2017-06-08T11:55:48.539Z,3.10
2017-06-08T11:58:16.117Z,3.33
2017-06-08T12:00:43.716Z,3.30
2017-06-08T12:03:11.319Z,3.30
2017-06-08T12:05:38.881Z,3.40
2017-06-08T12:08:06.531Z,2.90
2017-06-08T12:10:34.897Z,3.20
2017-06-08T12:13:02.481Z,3.23
2017-06-08T12:15:30.044Z,3.20
2017-06-08T12:17:57.813Z,3.40
2017-06-08T12:20:25.396Z,3.20
2017-06-08T12:22:52.953Z,3.20
2017-06-08T12:25:20.528Z,2.90
2017-06-08T12:27:48.086Z,2.87
2017-06-08T12:30:15.653Z,3.30
2017-06-08T12:32:43.426Z,2.63
2017-06-08T12:35:11.017Z,2.90
2017-06-08T12:37:39.413Z,2.90
2017-06-08T12:40:07.757Z,2.70
2017-06-08T12:42:35.327Z,2.70
2017-06-08T12:45:02.918Z,2.63
2017-06-08T12:47:30.507Z,2.93
2017-06-08T12:49:58.097Z,2.90
2017-06-08T12:52:25.652Z,3.23
2017-06-08T12:54:53.329Z,3.40
2017-06-08T12:57:20.886Z,3.30
2017-06-08T12:59:48.458Z,3.33
2017-06-08T13:02:16.046Z,3.00
2017-06-08T13:04:43.599Z,3.67
2017-06-08T13:07:11.950Z,2.93
2017-06-08T13:09:39.538Z,2.70
2017-06-08T13:12:07.866Z,2.87
2017-06-08T13:14:35.457Z,2.90
2017-06-08T13:17:03.021Z,2.70
2017-06-08T13:19:31.530Z,3.30
2017-06-08T13:21:59.115Z,2.60
2017-06-08T13:24:26.675Z,2.50
2017-06-08T13:26:54.265Z,2.80
2017-06-08T13:29:21.914Z,2.70
2017-06-08T13:31:49.770Z,2.60
2017-06-08T13:34:17.395Z,2.60
2017-06-08T13:36:45.789Z,2.80
2017-06-08T13:39:13.376Z,3.17
2017-06-08T13:41:42.445Z,2.70
2017-06-08T13:44:10.007Z,2.80
2017-06-08T13:46:37.683Z,2.60
2017-06-08T13:49:05.266Z,2.93
2017-06-08T13:51:33.124Z,2.37
2017-06-08T13:54:00.675Z,2.57
2017-06-08T13:56:28.353Z,2.67
2017-06-08T13:58:56.123Z,2.87
2017-06-08T14:01:23.717Z,2.93
2017-06-08T14:03:51.281Z,2.80
2017-06-08T14:06:18.853Z,2.90
2017-06-08T14:08:47.206Z,2.90
2017-06-08T14:11:14.811Z,2.57
2017-06-08T14:13:42.421Z,2.93
2017-06-08T14:16:10.006Z,2.70
2017-06-08T14:18:37.569Z,3.17
2017-06-08T14:21:05.191Z,2.93
2017-06-08T14:23:32.758Z,3.07
2017-06-08T14:26:00.385Z,2.83
2017-06-08T14:28:27.937Z,2.57
2017-06-08T14:30:55.499Z,3.00
2017-06-08T14:33:23.121Z,3.17
2017-06-08T14:35:50.687Z,3.30
2017-06-08T14:38:18.310Z,2.43
2017-06-08T14:40:45.908Z,2.60
2017-06-08T14:43:13.474Z,2.80
2017-06-08T14:45:41.047Z,2.30
2017-06-08T14:48:08.713Z,2.73
2017-06-08T14:50:36.267Z,2.90
2017-06-08T14:53:04.622Z,2.67
2017-06-08T14:55:32.184Z,3.13
2017-06-08T14:57:59.783Z,2.77
2017-06-08T15:00:28.116Z,3.90
2017-06-08T15:02:55.719Z,3.53
2017-06-08T15:05:24.076Z,2.67
2017-06-08T15:07:51.645Z,2.50
2017-06-08T15:10:19.225Z,2.70
2017-06-08T15:12:47.593Z,2.80
2017-06-08T15:15:15.918Z,2.90
2017-06-08T15:17:43.490Z,2.53
2017-06-08T15:20:11.083Z,2.80
2017-06-08T15:22:38.682Z,2.80
2017-06-08T15:25:06.278Z,2.80
2017-06-08T15:27:33.887Z,2.73
2017-06-08T15:30:01.469Z,3.07
2017-06-08T15:32:29.071Z,2.90
2017-06-08T15:34:56.641Z,2.90
2017-06-08T15:37:24.207Z,5.57
2017-06-08T15:39:51.823Z,4.27
2017-06-08T15:42:19.366Z,3.40
2017-06-08T15:44:46.941Z,2.80
2017-06-08T15:47:14.515Z,2.70
2017-06-08T15:49:42.166Z,2.60
2017-06-08T15:52:09.932Z,2.80
2017-06-08T15:54:37.487Z,3.60
2017-06-08T15:57:05.052Z,3.50
2017-06-08T15:59:32.660Z,3.13
2017-06-08T16:02:00.252Z,2.80
2017-06-08T16:04:28.587Z,3.10
2017-06-08T16:06:58.028Z,4.73
2017-06-08T16:09:26.417Z,3.73
2017-06-08T16:11:54.754Z,3.27
2017-06-08T16:14:22.350Z,3.10
2017-06-08T16:16:49.954Z,3.43
2017-06-08T16:19:17.643Z,2.50
2017-06-08T16:21:45.243Z,3.30
2017-06-08T16:24:13.578Z,2.90
2017-06-08T16:26:41.175Z,3.20
2017-06-08T16:29:08.851Z,3.23
2017-06-08T16:31:36.430Z,3.17
2017-06-08T16:34:04.032Z,2.97
2017-06-08T16:36:31.568Z,3.27
2017-06-08T16:38:59.144Z,3.10
2017-06-08T16:41:26.753Z,2.97
2017-06-08T16:43:54.341Z,2.60
2017-06-08T16:46:21.983Z,3.10
2017-06-08T16:48:49.558Z,3.17
2017-06-08T16:51:17.122Z,2.87
2017-06-08T16:53:44.713Z,3.17
2017-06-08T16:56:12.319Z,2.93
2017-06-08T16:58:40.656Z,2.70
2017-06-08T17:01:08.228Z,3.00
2017-06-08T17:03:35.843Z,2.70
2017-06-08T17:06:03.551Z,3.00
2017-06-08T17:08:31.155Z,3.10
2017-06-08T17:10:58.777Z,3.20
2017-06-08T17:13:26.365Z,2.90
2017-06-08T17:15:54.717Z,3.23
2017-06-08T17:18:22.309Z,2.90
2017-06-08T17:20:49.865Z,2.93
2017-06-08T17:23:17.487Z,3.10
2017-06-08T17:25:45.062Z,2.93
2017-06-08T17:28:12.914Z,3.13
2017-06-08T17:30:40.694Z,3.10
2017-06-08T17:33:08.279Z,3.13
2017-06-08T17:35:37.336Z,3.10
2017-06-08T17:38:04.893Z,3.00
2017-06-08T17:40:32.496Z,3.20
2017-06-08T17:43:00.830Z,3.00
2017-06-08T17:45:28.421Z,3.17
2017-06-08T17:47:56.002Z,3.10
2017-06-08T17:50:24.514Z,3.07
2017-06-08T17:52:52.098Z,2.97
2017-06-08T17:55:19.758Z,3.00
2017-06-08T17:57:48.090Z,3.00
2017-06-08T18:00:16.423Z,3.50
2017-06-08T18:02:44.034Z,2.80
2017-06-08T18:05:11.728Z,3.50
2017-06-08T18:07:39.356Z,2.83
2017-06-08T18:10:06.945Z,3.17
2017-06-08T18:12:34.533Z,2.90
2017-06-08T18:15:02.121Z,3.17
2017-06-08T18:17:29.669Z,3.50
2017-06-08T18:19:57.318Z,2.83
2017-06-08T18:22:24.902Z,3.20
2017-06-08T18:24:52.514Z,2.93
2017-06-08T18:27:20.091Z,2.77
2017-06-08T18:29:47.703Z,2.97
2017-06-08T18:32:15.307Z,2.73
2017-06-08T18:34:42.870Z,3.20
2017-06-08T18:37:10.445Z,3.20
2017-06-08T18:39:38.061Z,2.80
2017-06-08T18:42:05.667Z,3.10
2017-06-08T18:44:33.791Z,3.30
2017-06-08T18:47:01.479Z,3.23
2017-06-08T18:49:29.956Z,2.90
2017-06-08T18:51:57.626Z,3.10
2017-06-08T18:54:25.198Z,3.13
2017-06-08T18:56:52.772Z,2.70
2017-06-08T18:59:20.350Z,3.37
2017-06-08T19:01:47.949Z,3.07
2017-06-08T19:04:15.583Z,3.07
2017-06-08T19:06:43.213Z,2.90
2017-06-08T19:09:10.778Z,2.97
2017-06-08T19:11:38.322Z,3.03
2017-06-08T19:14:05.991Z,3.23
2017-06-08T19:16:33.574Z,2.90
2017-06-08T19:19:01.166Z,3.27
2017-06-08T19:21:28.756Z,2.80
2017-06-08T19:23:56.330Z,2.97
2017-06-08T19:26:23.930Z,3.17
2017-06-08T19:28:51.562Z,3.27
2017-06-08T19:31:19.118Z,2.90
2017-06-08T19:33:46.717Z,3.00
2017-06-08T19:36:14.294Z,2.90
2017-06-08T19:38:42.630Z,3.17
2017-06-08T19:41:11.000Z,2.90
2017-06-08T19:43:38.575Z,2.90
2017-06-08T19:46:06.168Z,3.20
2017-06-08T19:48:35.231Z,3.27
2017-06-08T19:51:03.606Z,3.30
2017-06-08T19:53:31.210Z,3.10
2017-06-08T19:55:59.546Z,3.10
2017-06-08T19:58:27.117Z,3.70
2017-06-08T20:00:54.692Z,4.60
2017-06-08T20:03:22.287Z,2.97
2017-06-08T20:05:49.850Z,4.30
2017-06-08T20:08:17.411Z,3.40
2017-06-08T20:10:44.995Z,3.13
2017-06-08T20:13:12.565Z,3.37
2017-06-08T20:15:40.189Z,3.27
2017-06-08T20:18:07.804Z,3.47
2017-06-08T20:20:35.359Z,3.20
2017-06-08T20:23:02.953Z,3.40
2017-06-08T20:25:31.300Z,3.10
2017-06-08T20:27:58.898Z,3.30
2017-06-08T20:30:26.477Z,2.97
2017-06-08T20:32:54.022Z,3.00
2017-06-08T20:35:22.423Z,3.40
2017-06-08T20:37:49.991Z,3.50
2017-06-08T20:40:17.602Z,3.83
2017-06-08T20:42:45.788Z,2.90
2017-06-08T20:45:13.393Z,3.40
2017-06-08T20:47:40.990Z,3.87
2017-06-08T20:50:08.587Z,3.57
2017-06-08T20:52:36.159Z,3.43
2017-06-08T20:55:03.766Z,3.23
2017-06-08T20:57:31.346Z,3.60
2017-06-08T20:59:58.986Z,3.60
2017-06-08T21:02:27.482Z,3.40
2017-06-08T21:04:55.057Z,3.10
2017-06-08T21:07:22.648Z,3.43
2017-06-08T21:09:50.233Z,3.60
2017-06-08T21:12:17.823Z,3.23
2017-06-08T21:14:45.374Z,3.30
2017-06-08T21:17:13.250Z,3.67
2017-06-08T21:19:40.863Z,3.23
2017-06-08T21:22:08.433Z,4.13
2017-06-08T21:24:36.103Z,3.67
2017-06-08T21:27:03.655Z,3.60
2017-06-08T21:29:31.226Z,3.63
2017-06-08T21:31:58.818Z,3.53
2017-06-08T21:34:26.450Z,3.50
2017-06-08T21:36:54.026Z,3.50
2017-06-08T21:39:21.628Z,3.47
2017-06-08T21:41:49.174Z,4.03
2017-06-08T21:44:16.785Z,3.97
2017-06-08T21:46:44.362Z,4.73
2017-06-08T21:49:11.924Z,3.50
2017-06-08T21:51:39.570Z,3.77
2017-06-08T21:54:07.147Z,3.50
2017-06-08T21:56:34.751Z,3.60
2017-06-08T21:59:02.343Z,3.77
2017-06-08T22:01:29.904Z,3.60
2017-06-08T22:03:57.493Z,3.77
2017-06-08T22:06:25.101Z,3.97
2017-06-08T22:08:52.712Z,3.70
2017-06-08T22:11:20.310Z,3.97
2017-06-08T22:13:47.874Z,4.07
2017-06-08T22:16:15.452Z,3.53
2017-06-08T22:18:43.046Z,4.07
2017-06-08T22:21:10.598Z,4.00
2017-06-08T22:23:38.902Z,4.20
2017-06-08T22:26:06.469Z,3.67
2017-06-08T22:28:34.073Z,3.70
2017-06-08T22:31:01.691Z,3.53
2017-06-08T22:33:29.259Z,3.90
2017-06-08T22:35:56.873Z,3.60
2017-06-08T22:38:25.206Z,3.80
2017-06-08T22:40:52.766Z,3.50
2017-06-08T22:43:20.338Z,4.20
2017-06-08T22:45:47.890Z,4.20
2017-06-08T22:48:15.489Z,4.00
2017-06-08T22:50:43.109Z,4.10
2017-06-08T22:53:10.674Z,4.20
2017-06-08T22:55:38.270Z,3.80
2017-06-08T22:58:06.791Z,3.70
2017-06-08T23:00:34.335Z,3.80
2017-06-08T23:03:01.934Z,3.83
2017-06-08T23:05:29.494Z,3.83
2017-06-08T23:07:57.050Z,3.73
2017-06-08T23:10:24.647Z,3.83
2017-06-08T23:12:52.989Z,4.03
2017-06-08T23:15:20.582Z,3.90
2017-06-08T23:17:48.153Z,4.33
2017-06-08T23:20:16.491Z,4.20
2017-06-08T23:22:44.066Z,3.40
2017-06-08T23:25:11.657Z,4.17
2017-06-08T23:27:39.970Z,4.40
2017-06-08T23:30:07.554Z,3.73
2017-06-08T23:32:35.235Z,3.80
2017-06-08T23:35:02.797Z,4.10
2017-06-08T23:37:30.414Z,4.33
2017-06-08T23:39:58.017Z,3.83
2017-06-08T23:42:25.617Z,4.10
2017-06-08T23:44:53.168Z,3.43
2017-06-08T23:47:21.526Z,3.70
2017-06-08T23:49:49.094Z,4.20
2017-06-08T23:52:16.651Z,4.27
2017-06-08T23:54:44.233Z,3.90
2017-06-08T23:57:11.820Z,4.70
2017-06-08T23:59:39.374Z,4.37
